sensor_id;sensor_type;location;lat;lon;timestamp;temperature;humidity
51867;DHT22;52862;52.504;13.480;2023-04-03T00:00:40;2.20;99.90
51867;DHT22;52862;52.504;13.480;2023-04-03T00:03:07;1.60;99.90
51867;DHT22;52862;52.504;13.480;2023-04-03T00:08:01;2.40;99.90
51867;DHT22;52862;52.504;13.480;2023-04-03T00:10:28;2.30;99.90
51867;DHT22;52862;52.504;13.480;2023-04-03T00:15:22;2.10;99.90
51867;DHT22;52862;52.504;13.480;2023-04-03T00:20:16;2.50;99.90
51867;DHT22;52862;52.504;13.480;2023-04-03T00:27:38;2.00;99.90
51867;DHT22;52862;52.504;13.480;2023-04-03T00:30:07;2.10;99.90
51867;DHT22;52862;52.504;13.480;2023-04-03T00:35:01;2.20;99.90
51867;DHT22;52862;52.504;13.480;2023-04-03T00:42:23;2.20;99.90
51867;DHT22;52862;52.504;13.480;2023-04-03T00:47:56;1.80;99.90
51867;DHT22;52862;52.504;13.480;2023-04-03T00:50:26;1.90;99.90
51867;DHT22;52862;52.504;13.480;2023-04-03T00:52:53;2.20;99.90
51867;DHT22;52862;52.504;13.480;2023-04-03T00:55:21;1.80;99.90
51867;DHT22;52862;52.504;13.480;2023-04-03T00:57:48;2.10;99.90
51867;DHT22;52862;52.504;13.480;2023-04-03T01:00:20;2.00;99.90
51867;DHT22;52862;52.504;13.480;2023-04-03T01:05:17;2.00;99.90
51867;DHT22;52862;52.504;13.480;2023-04-03T01:07:44;1.90;99.90
51867;DHT22;52862;52.504;13.480;2023-04-03T01:10:13;2.00;99.90
51867;DHT22;52862;52.504;13.480;2023-04-03T01:12:43;1.80;99.90
51867;DHT22;52862;52.504;13.480;2023-04-03T01:15:15;1.80;99.90
51867;DHT22;52862;52.504;13.480;2023-04-03T01:17:44;1.80;99.90
51867;DHT22;52862;52.504;13.480;2023-04-03T01:23:27;1.90;99.90
51867;DHT22;52862;52.504;13.480;2023-04-03T01:28:27;1.80;99.90
51867;DHT22;52862;52.504;13.480;2023-04-03T01:31:00;1.90;99.90
51867;DHT22;52862;52.504;13.480;2023-04-03T01:33:29;1.90;99.90
51867;DHT22;52862;52.504;13.480;2023-04-03T01:43:18;1.80;99.90
51867;DHT22;52862;52.504;13.480;2023-04-03T01:50:40;2.00;99.90
51867;DHT22;52862;52.504;13.480;2023-04-03T01:53:08;1.50;99.90
51867;DHT22;52862;52.504;13.480;2023-04-03T01:58:02;1.50;99.90
51867;DHT22;52862;52.504;13.480;2023-04-03T02:07:50;1.40;99.90
51867;DHT22;52862;52.504;13.480;2023-04-03T02:12:44;1.70;99.90
51867;DHT22;52862;52.504;13.480;2023-04-03T02:17:38;1.50;99.90
51867;DHT22;52862;52.504;13.480;2023-04-03T02:20:06;1.90;99.90
51867;DHT22;52862;52.504;13.480;2023-04-03T02:25:00;1.60;99.90
51867;DHT22;52862;52.504;13.480;2023-04-03T02:32:21;2.50;99.90
51867;DHT22;52862;52.504;13.480;2023-04-03T02:42:10;1.40;99.90
51867;DHT22;52862;52.504;13.480;2023-04-03T02:44:37;1.40;99.90
51867;DHT22;52862;52.504;13.480;2023-04-03T02:47:04;1.40;99.90
51867;DHT22;52862;52.504;13.480;2023-04-03T02:59:22;1.30;99.90
51867;DHT22;52862;52.504;13.480;2023-04-03T03:01:49;1.40;99.90
51867;DHT22;52862;52.504;13.480;2023-04-03T03:04:16;1.50;99.90
51867;DHT22;52862;52.504;13.480;2023-04-03T03:06:42;1.40;99.90
51867;DHT22;52862;52.504;13.480;2023-04-03T03:11:39;1.50;99.90
51867;DHT22;52862;52.504;13.480;2023-04-03T03:14:06;1.10;99.90
51867;DHT22;52862;52.504;13.480;2023-04-03T03:16:33;1.10;99.90
51867;DHT22;52862;52.504;13.480;2023-04-03T03:26:21;1.20;99.90
51867;DHT22;52862;52.504;13.480;2023-04-03T03:33:43;1.00;99.90
51867;DHT22;52862;52.504;13.480;2023-04-03T03:38:37;0.80;99.90
51867;DHT22;52862;52.504;13.480;2023-04-03T03:43:31;1.10;99.90
51867;DHT22;52862;52.504;13.480;2023-04-03T03:50:56;0.70;99.90
51867;DHT22;52862;52.504;13.480;2023-04-03T03:53:22;1.30;99.90
51867;DHT22;52862;52.504;13.480;2023-04-03T04:05:38;0.90;99.90
51867;DHT22;52862;52.504;13.480;2023-04-03T04:08:06;1.30;99.90
51867;DHT22;52862;52.504;13.480;2023-04-03T04:25:16;0.70;99.90
51867;DHT22;52862;52.504;13.480;2023-04-03T04:27:43;0.90;99.90
51867;DHT22;52862;52.504;13.480;2023-04-03T04:30:11;0.60;99.90
51867;DHT22;52862;52.504;13.480;2023-04-03T04:35:14;0.80;99.90
51867;DHT22;52862;52.504;13.480;2023-04-03T04:40:10;0.10;99.90
51867;DHT22;52862;52.504;13.480;2023-04-03T04:42:38;0.80;99.90
51867;DHT22;52862;52.504;13.480;2023-04-03T04:45:05;0.80;99.90
51867;DHT22;52862;52.504;13.480;2023-04-03T04:50:00;0.90;99.90
51867;DHT22;52862;52.504;13.480;2023-04-03T04:52:27;1.20;99.90
51867;DHT22;52862;52.504;13.480;2023-04-03T04:59:48;0.90;99.90
51867;DHT22;52862;52.504;13.480;2023-04-03T05:12:03;0.90;99.90
51867;DHT22;52862;52.504;13.480;2023-04-03T05:16:58;1.30;99.90
51867;DHT22;52862;52.504;13.480;2023-04-03T05:19:25;0.80;99.90
51867;DHT22;52862;52.504;13.480;2023-04-03T05:21:52;1.10;99.90
51867;DHT22;52862;52.504;13.480;2023-04-03T05:24:19;1.50;99.90
51867;DHT22;52862;52.504;13.480;2023-04-03T05:34:07;1.40;99.90
51867;DHT22;52862;52.504;13.480;2023-04-03T05:36:36;1.70;99.90
51867;DHT22;52862;52.504;13.480;2023-04-03T05:39:03;1.60;99.90
51867;DHT22;52862;52.504;13.480;2023-04-03T05:43:57;2.00;99.90
51867;DHT22;52862;52.504;13.480;2023-04-03T05:46:24;1.80;99.90
51867;DHT22;52862;52.504;13.480;2023-04-03T05:48:51;2.20;99.90
51867;DHT22;52862;52.504;13.480;2023-04-03T05:51:20;1.80;99.90
51867;DHT22;52862;52.504;13.480;2023-04-03T05:53:48;2.20;99.90
51867;DHT22;52862;52.504;13.480;2023-04-03T05:56:17;2.00;99.90
51867;DHT22;52862;52.504;13.480;2023-04-03T06:01:10;2.20;99.90
51867;DHT22;52862;52.504;13.480;2023-04-03T06:03:37;2.30;99.90
51867;DHT22;52862;52.504;13.480;2023-04-03T06:06:06;1.30;99.90
51867;DHT22;52862;52.504;13.480;2023-04-03T06:08:34;2.40;99.90
51867;DHT22;52862;52.504;13.480;2023-04-03T06:11:01;2.60;99.90
51867;DHT22;52862;52.504;13.480;2023-04-03T06:15:55;2.70;99.90
51867;DHT22;52862;52.504;13.480;2023-04-03T06:18:23;2.90;99.90
51867;DHT22;52862;52.504;13.480;2023-04-03T06:20:50;3.20;99.90
51867;DHT22;52862;52.504;13.480;2023-04-03T06:23:16;3.20;99.90
51867;DHT22;52862;52.504;13.480;2023-04-03T06:25:44;3.00;99.90
51867;DHT22;52862;52.504;13.480;2023-04-03T06:38:01;3.30;99.90
51867;DHT22;52862;52.504;13.480;2023-04-03T06:40:30;3.30;99.90
51867;DHT22;52862;52.504;13.480;2023-04-03T06:42:57;3.50;99.90
51867;DHT22;52862;52.504;13.480;2023-04-03T06:45:24;3.60;99.90
51867;DHT22;52862;52.504;13.480;2023-04-03T06:47:52;3.80;99.90
51867;DHT22;52862;52.504;13.480;2023-04-03T06:50:19;4.00;99.90
51867;DHT22;52862;52.504;13.480;2023-04-03T06:52:46;3.90;99.90
51867;DHT22;52862;52.504;13.480;2023-04-03T06:55:12;4.50;99.90
51867;DHT22;52862;52.504;13.480;2023-04-03T06:57:39;3.60;99.90
51867;DHT22;52862;52.504;13.480;2023-04-03T07:00:10;3.60;99.90
51867;DHT22;52862;52.504;13.480;2023-04-03T07:02:37;3.80;99.90
51867;DHT22;52862;52.504;13.480;2023-04-03T07:05:05;3.50;99.90
51867;DHT22;52862;52.504;13.480;2023-04-03T07:10:00;4.10;99.90
51867;DHT22;52862;52.504;13.480;2023-04-03T07:12:27;4.50;99.90
51867;DHT22;52862;52.504;13.480;2023-04-03T07:14:53;4.60;99.90
51867;DHT22;52862;52.504;13.480;2023-04-03T07:17:21;3.80;99.90
51867;DHT22;52862;52.504;13.480;2023-04-03T07:22:15;4.20;99.90
51867;DHT22;52862;52.504;13.480;2023-04-03T07:29:39;4.20;99.90
51867;DHT22;52862;52.504;13.480;2023-04-03T07:32:06;5.00;99.90
51867;DHT22;52862;52.504;13.480;2023-04-03T07:34:33;5.30;99.90
51867;DHT22;52862;52.504;13.480;2023-04-03T07:37:00;5.50;99.90
51867;DHT22;52862;52.504;13.480;2023-04-03T07:39:27;5.20;99.90
51867;DHT22;52862;52.504;13.480;2023-04-03T07:41:54;4.90;99.90
51867;DHT22;52862;52.504;13.480;2023-04-03T07:44:22;4.70;99.90
51867;DHT22;52862;52.504;13.480;2023-04-03T07:46:48;5.00;99.90
51867;DHT22;52862;52.504;13.480;2023-04-03T07:49:16;4.60;99.90
51867;DHT22;52862;52.504;13.480;2023-04-03T07:51:44;4.80;99.90
51867;DHT22;52862;52.504;13.480;2023-04-03T07:54:11;5.00;99.90
51867;DHT22;52862;52.504;13.480;2023-04-03T08:01:32;4.60;99.90
51867;DHT22;52862;52.504;13.480;2023-04-03T08:03:59;4.70;99.90
51867;DHT22;52862;52.504;13.480;2023-04-03T08:06:26;4.90;99.90
51867;DHT22;52862;52.504;13.480;2023-04-03T08:09:12;5.00;99.90
51867;DHT22;52862;52.504;13.480;2023-04-03T08:11:40;4.50;99.90
51867;DHT22;52862;52.504;13.480;2023-04-03T08:14:07;5.10;99.90
51867;DHT22;52862;52.504;13.480;2023-04-03T08:16:34;5.10;99.90
51867;DHT22;52862;52.504;13.480;2023-04-03T08:19:00;5.20;99.90
51867;DHT22;52862;52.504;13.480;2023-04-03T08:21:28;5.70;99.90
51867;DHT22;52862;52.504;13.480;2023-04-03T08:23:55;5.60;99.90
51867;DHT22;52862;52.504;13.480;2023-04-03T08:26:23;5.70;99.90
51867;DHT22;52862;52.504;13.480;2023-04-03T08:31:18;7.10;99.90
51867;DHT22;52862;52.504;13.480;2023-04-03T08:33:46;4.90;99.90
51867;DHT22;52862;52.504;13.480;2023-04-03T08:36:18;4.80;99.90
51867;DHT22;52862;52.504;13.480;2023-04-03T08:38:45;4.40;99.90
51867;DHT22;52862;52.504;13.480;2023-04-03T08:41:16;4.50;99.90
51867;DHT22;52862;52.504;13.480;2023-04-03T08:43:57;4.50;99.90
51867;DHT22;52862;52.504;13.480;2023-04-03T08:46:36;4.50;99.90
51867;DHT22;52862;52.504;13.480;2023-04-03T08:49:12;4.40;99.90
51867;DHT22;52862;52.504;13.480;2023-04-03T08:51:47;4.30;99.90
51867;DHT22;52862;52.504;13.480;2023-04-03T08:54:24;4.70;99.90
51867;DHT22;52862;52.504;13.480;2023-04-03T08:56:52;5.10;99.90
51867;DHT22;52862;52.504;13.480;2023-04-03T08:59:26;4.90;99.90
51867;DHT22;52862;52.504;13.480;2023-04-03T09:01:54;4.70;99.90
51867;DHT22;52862;52.504;13.480;2023-04-03T09:04:22;4.50;99.90
51867;DHT22;52862;52.504;13.480;2023-04-03T09:06:52;4.60;99.90
51867;DHT22;52862;52.504;13.480;2023-04-03T09:09:30;5.50;99.90
51867;DHT22;52862;52.504;13.480;2023-04-03T09:12:04;5.00;99.90
51867;DHT22;52862;52.504;13.480;2023-04-03T09:14:39;5.40;99.90
51867;DHT22;52862;52.504;13.480;2023-04-03T09:17:14;5.90;99.90
51867;DHT22;52862;52.504;13.480;2023-04-03T09:19:49;6.30;99.90
51867;DHT22;52862;52.504;13.480;2023-04-03T09:22:21;6.80;99.90
51867;DHT22;52862;52.504;13.480;2023-04-03T09:24:55;6.80;99.90
51867;DHT22;52862;52.504;13.480;2023-04-03T09:27:27;6.30;99.90
51867;DHT22;52862;52.504;13.480;2023-04-03T09:29:56;5.80;99.90
51867;DHT22;52862;52.504;13.480;2023-04-03T09:32:27;5.70;99.90
51867;DHT22;52862;52.504;13.480;2023-04-03T09:34:57;6.20;99.90
51867;DHT22;52862;52.504;13.480;2023-04-03T09:37:39;5.80;99.90
51867;DHT22;52862;52.504;13.480;2023-04-03T09:40:28;6.00;99.90
51867;DHT22;52862;52.504;13.480;2023-04-03T09:42:57;5.90;99.90
51867;DHT22;52862;52.504;13.480;2023-04-03T09:45:29;6.10;99.90
51867;DHT22;52862;52.504;13.480;2023-04-03T09:48:08;6.00;99.90
51867;DHT22;52862;52.504;13.480;2023-04-03T09:50:54;5.90;99.90
51867;DHT22;52862;52.504;13.480;2023-04-03T09:53:35;6.00;99.90
51867;DHT22;52862;52.504;13.480;2023-04-03T09:56:09;6.10;99.90
51867;DHT22;52862;52.504;13.480;2023-04-03T09:58:46;6.10;99.90
51867;DHT22;52862;52.504;13.480;2023-04-03T10:01:27;6.40;99.90
51867;DHT22;52862;52.504;13.480;2023-04-03T10:04:05;6.60;99.90
51867;DHT22;52862;52.504;13.480;2023-04-03T10:06:34;6.70;99.90
51867;DHT22;52862;52.504;13.480;2023-04-03T10:09:04;5.80;99.90
51867;DHT22;52862;52.504;13.480;2023-04-03T10:11:31;6.30;99.90
51867;DHT22;52862;52.504;13.480;2023-04-03T10:13:59;6.00;99.90
51867;DHT22;52862;52.504;13.480;2023-04-03T10:16:33;7.90;99.90
51867;DHT22;52862;52.504;13.480;2023-04-03T10:19:14;6.10;99.90
51867;DHT22;52862;52.504;13.480;2023-04-03T10:21:47;6.20;99.90
51867;DHT22;52862;52.504;13.480;2023-04-03T10:24:18;6.10;99.90
51867;DHT22;52862;52.504;13.480;2023-04-03T10:26:54;5.60;99.90
51867;DHT22;52862;52.504;13.480;2023-04-03T10:29:40;6.50;99.90
51867;DHT22;52862;52.504;13.480;2023-04-03T10:32:26;6.70;99.90
51867;DHT22;52862;52.504;13.480;2023-04-03T10:35:02;7.30;99.90
51867;DHT22;52862;52.504;13.480;2023-04-03T10:37:45;7.00;99.90
51867;DHT22;52862;52.504;13.480;2023-04-03T10:40:23;6.70;99.90
51867;DHT22;52862;52.504;13.480;2023-04-03T10:42:56;6.80;99.90
51867;DHT22;52862;52.504;13.480;2023-04-03T10:45:27;6.90;99.90
51867;DHT22;52862;52.504;13.480;2023-04-03T10:48:04;6.80;99.90
51867;DHT22;52862;52.504;13.480;2023-04-03T10:50:48;6.00;99.90
51867;DHT22;52862;52.504;13.480;2023-04-03T10:53:23;6.00;99.90
51867;DHT22;52862;52.504;13.480;2023-04-03T10:55:56;6.90;99.90
51867;DHT22;52862;52.504;13.480;2023-04-03T10:58:32;6.60;99.90
51867;DHT22;52862;52.504;13.480;2023-04-03T11:01:02;7.10;99.90
51867;DHT22;52862;52.504;13.480;2023-04-03T11:03:36;6.90;99.90
51867;DHT22;52862;52.504;13.480;2023-04-03T11:06:09;6.90;99.90
51867;DHT22;52862;52.504;13.480;2023-04-03T11:08:39;6.50;99.90
51867;DHT22;52862;52.504;13.480;2023-04-03T11:11:11;6.50;99.90
51867;DHT22;52862;52.504;13.480;2023-04-03T11:13:43;6.50;99.90
51867;DHT22;52862;52.504;13.480;2023-04-03T11:16:14;6.90;99.90
51867;DHT22;52862;52.504;13.480;2023-04-03T11:18:48;6.70;99.90
51867;DHT22;52862;52.504;13.480;2023-04-03T11:21:20;6.70;99.90
51867;DHT22;52862;52.504;13.480;2023-04-03T11:23:48;7.00;99.90
51867;DHT22;52862;52.504;13.480;2023-04-03T11:26:19;7.00;99.90
51867;DHT22;52862;52.504;13.480;2023-04-03T11:28:52;6.30;99.90
51867;DHT22;52862;52.504;13.480;2023-04-03T11:31:38;7.20;99.90
51867;DHT22;52862;52.504;13.480;2023-04-03T11:34:21;6.60;99.90
51867;DHT22;52862;52.504;13.480;2023-04-03T11:36:52;6.80;99.90
51867;DHT22;52862;52.504;13.480;2023-04-03T11:39:23;7.40;99.90
51867;DHT22;52862;52.504;13.480;2023-04-03T11:41:50;7.20;99.90
51867;DHT22;52862;52.504;13.480;2023-04-03T11:44:31;7.60;99.90
51867;DHT22;52862;52.504;13.480;2023-04-03T11:47:00;7.30;99.90
51867;DHT22;52862;52.504;13.480;2023-04-03T11:49:57;7.10;99.90
51867;DHT22;52862;52.504;13.480;2023-04-03T11:53:02;7.40;99.90
51867;DHT22;52862;52.504;13.480;2023-04-03T11:55:52;7.50;99.90
51867;DHT22;52862;52.504;13.480;2023-04-03T11:58:20;7.10;99.90
51867;DHT22;52862;52.504;13.480;2023-04-03T12:00:53;7.40;99.90
51867;DHT22;52862;52.504;13.480;2023-04-03T12:03:56;7.90;99.90
51867;DHT22;52862;52.504;13.480;2023-04-03T12:10:17;7.10;99.90
51867;DHT22;52862;52.504;13.480;2023-04-03T12:12:59;7.00;99.90
51867;DHT22;52862;52.504;13.480;2023-04-03T12:15:52;6.80;99.90
51867;DHT22;52862;52.504;13.480;2023-04-03T12:21:11;7.30;99.90
51867;DHT22;52862;52.504;13.480;2023-04-03T12:23:57;7.40;99.90
51867;DHT22;52862;52.504;13.480;2023-04-03T12:26:26;7.60;99.90
51867;DHT22;52862;52.504;13.480;2023-04-03T12:29:15;7.60;99.90
51867;DHT22;52862;52.504;13.480;2023-04-03T12:31:55;7.10;99.90
51867;DHT22;52862;52.504;13.480;2023-04-03T12:34:41;7.30;99.00
51867;DHT22;52862;52.504;13.480;2023-04-03T12:37:24;8.10;99.90
51867;DHT22;52862;52.504;13.480;2023-04-03T12:40:02;7.20;99.90
51867;DHT22;52862;52.504;13.480;2023-04-03T12:42:46;7.50;99.90
51867;DHT22;52862;52.504;13.480;2023-04-03T12:45:20;7.60;98.00
51867;DHT22;52862;52.504;13.480;2023-04-03T12:47:49;6.80;99.90
51867;DHT22;52862;52.504;13.480;2023-04-03T12:50:21;7.80;99.90
51867;DHT22;52862;52.504;13.480;2023-04-03T12:52:56;6.40;99.90
51867;DHT22;52862;52.504;13.480;2023-04-03T12:55:24;6.30;99.90
51867;DHT22;52862;52.504;13.480;2023-04-03T12:57:52;6.00;99.90
51867;DHT22;52862;52.504;13.480;2023-04-03T13:00:31;9.70;99.90
51867;DHT22;52862;52.504;13.480;2023-04-03T13:03:00;7.40;99.90
51867;DHT22;52862;52.504;13.480;2023-04-03T13:05:28;8.10;99.90
51867;DHT22;52862;52.504;13.480;2023-04-03T13:07:59;8.10;99.90
51867;DHT22;52862;52.504;13.480;2023-04-03T13:10:26;8.40;99.90
51867;DHT22;52862;52.504;13.480;2023-04-03T13:12:56;8.40;98.60
51867;DHT22;52862;52.504;13.480;2023-04-03T13:15:24;8.10;99.90
51867;DHT22;52862;52.504;13.480;2023-04-03T13:17:52;8.20;99.90
51867;DHT22;52862;52.504;13.480;2023-04-03T13:20:23;8.00;99.00
51867;DHT22;52862;52.504;13.480;2023-04-03T13:22:55;7.70;98.90
51867;DHT22;52862;52.504;13.480;2023-04-03T13:25:24;7.60;98.80
51867;DHT22;52862;52.504;13.480;2023-04-03T13:27:53;7.50;99.90
51867;DHT22;52862;52.504;13.480;2023-04-03T13:30:39;7.00;99.90
51867;DHT22;52862;52.504;13.480;2023-04-03T13:33:20;6.80;99.90
51867;DHT22;52862;52.504;13.480;2023-04-03T13:35:48;6.50;99.90
51867;DHT22;52862;52.504;13.480;2023-04-03T13:38:23;6.60;99.90
51867;DHT22;52862;52.504;13.480;2023-04-03T13:40:51;6.30;99.90
51867;DHT22;52862;52.504;13.480;2023-04-03T13:43:21;6.80;99.90
51867;DHT22;52862;52.504;13.480;2023-04-03T13:45:58;6.40;99.90
51867;DHT22;52862;52.504;13.480;2023-04-03T13:48:26;6.30;99.90
51867;DHT22;52862;52.504;13.480;2023-04-03T13:50:58;6.70;99.90
51867;DHT22;52862;52.504;13.480;2023-04-03T13:53:28;6.50;99.90
51867;DHT22;52862;52.504;13.480;2023-04-03T13:55:58;6.80;99.90
51867;DHT22;52862;52.504;13.480;2023-04-03T13:58:28;6.60;99.90
51867;DHT22;52862;52.504;13.480;2023-04-03T14:01:00;6.60;99.90
51867;DHT22;52862;52.504;13.480;2023-04-03T14:03:30;8.30;99.90
51867;DHT22;52862;52.504;13.480;2023-04-03T14:05:58;6.80;99.90
51867;DHT22;52862;52.504;13.480;2023-04-03T14:08:25;7.30;99.90
51867;DHT22;52862;52.504;13.480;2023-04-03T14:11:11;8.20;99.90
51867;DHT22;52862;52.504;13.480;2023-04-03T14:13:40;10.80;97.10
51867;DHT22;52862;52.504;13.480;2023-04-03T14:16:07;10.50;95.70
51867;DHT22;52862;52.504;13.480;2023-04-03T14:18:42;11.90;94.70
51867;DHT22;52862;52.504;13.480;2023-04-03T14:21:11;10.10;99.90
51867;DHT22;52862;52.504;13.480;2023-04-03T14:23:38;10.30;94.50
51867;DHT22;52862;52.504;13.480;2023-04-03T14:26:08;10.30;95.40
51867;DHT22;52862;52.504;13.480;2023-04-03T14:28:35;11.50;94.60
51867;DHT22;52862;52.504;13.480;2023-04-03T14:31:03;15.00;88.50
51867;DHT22;52862;52.504;13.480;2023-04-03T14:33:30;15.70;81.00
51867;DHT22;52862;52.504;13.480;2023-04-03T14:36:00;15.00;79.50
51867;DHT22;52862;52.504;13.480;2023-04-03T14:38:30;12.30;83.80
51867;DHT22;52862;52.504;13.480;2023-04-03T14:40:57;10.40;88.80
51867;DHT22;52862;52.504;13.480;2023-04-03T14:43:42;8.80;92.10
51867;DHT22;52862;52.504;13.480;2023-04-03T14:46:13;7.80;94.60
51867;DHT22;52862;52.504;13.480;2023-04-03T14:48:41;7.20;99.90
51867;DHT22;52862;52.504;13.480;2023-04-03T14:51:10;6.90;99.90
51867;DHT22;52862;52.504;13.480;2023-04-03T14:53:37;6.80;98.60
51867;DHT22;52862;52.504;13.480;2023-04-03T14:56:11;6.80;99.90
51867;DHT22;52862;52.504;13.480;2023-04-03T14:58:38;6.40;99.90
51867;DHT22;52862;52.504;13.480;2023-04-03T15:01:05;6.30;99.90
51867;DHT22;52862;52.504;13.480;2023-04-03T15:03:33;6.30;99.90
51867;DHT22;52862;52.504;13.480;2023-04-03T15:05:59;5.70;99.90
51867;DHT22;52862;52.504;13.480;2023-04-03T15:08:27;6.10;99.90
51867;DHT22;52862;52.504;13.480;2023-04-03T15:10:56;5.70;99.90
51867;DHT22;52862;52.504;13.480;2023-04-03T15:13:23;5.90;99.90
51867;DHT22;52862;52.504;13.480;2023-04-03T15:15:51;5.70;99.90
51867;DHT22;52862;52.504;13.480;2023-04-03T15:18:20;5.90;99.90
51867;DHT22;52862;52.504;13.480;2023-04-03T15:20:48;5.60;99.90
51867;DHT22;52862;52.504;13.480;2023-04-03T15:23:16;5.90;99.90
51867;DHT22;52862;52.504;13.480;2023-04-03T15:25:43;6.00;99.90
51867;DHT22;52862;52.504;13.480;2023-04-03T15:28:18;5.60;99.90
51867;DHT22;52862;52.504;13.480;2023-04-03T15:30:46;5.70;99.90
51867;DHT22;52862;52.504;13.480;2023-04-03T15:33:13;5.80;99.90
51867;DHT22;52862;52.504;13.480;2023-04-03T15:35:41;5.60;99.90
51867;DHT22;52862;52.504;13.480;2023-04-03T15:38:09;5.90;99.90
51867;DHT22;52862;52.504;13.480;2023-04-03T15:40:36;5.90;99.90
51867;DHT22;52862;52.504;13.480;2023-04-03T15:43:04;5.10;99.90
51867;DHT22;52862;52.504;13.480;2023-04-03T15:45:32;5.80;99.90
51867;DHT22;52862;52.504;13.480;2023-04-03T15:48:00;5.50;99.90
51867;DHT22;52862;52.504;13.480;2023-04-03T15:50:27;5.40;99.90
51867;DHT22;52862;52.504;13.480;2023-04-03T15:52:54;5.70;99.90
51867;DHT22;52862;52.504;13.480;2023-04-03T15:55:22;5.70;99.90
51867;DHT22;52862;52.504;13.480;2023-04-03T15:57:49;5.80;99.90
51867;DHT22;52862;52.504;13.480;2023-04-03T16:00:16;5.60;99.90
51867;DHT22;52862;52.504;13.480;2023-04-03T16:02:45;6.20;99.90
51867;DHT22;52862;52.504;13.480;2023-04-03T16:05:13;3.40;99.90
51867;DHT22;52862;52.504;13.480;2023-04-03T16:07:41;6.50;99.90
51867;DHT22;52862;52.504;13.480;2023-04-03T16:10:09;5.90;99.90
51867;DHT22;52862;52.504;13.480;2023-04-03T16:12:37;6.20;99.90
51867;DHT22;52862;52.504;13.480;2023-04-03T16:15:04;6.30;99.90
51867;DHT22;52862;52.504;13.480;2023-04-03T16:17:32;6.60;99.90
51867;DHT22;52862;52.504;13.480;2023-04-03T16:20:00;6.90;99.90
51867;DHT22;52862;52.504;13.480;2023-04-03T16:22:28;6.80;99.90
51867;DHT22;52862;52.504;13.480;2023-04-03T16:24:56;7.10;99.90
51867;DHT22;52862;52.504;13.480;2023-04-03T16:27:22;6.90;99.90
51867;DHT22;52862;52.504;13.480;2023-04-03T16:29:54;6.80;99.90
51867;DHT22;52862;52.504;13.480;2023-04-03T16:32:21;6.60;99.90
51867;DHT22;52862;52.504;13.480;2023-04-03T16:34:48;5.40;99.90
51867;DHT22;52862;52.504;13.480;2023-04-03T16:37:15;6.30;99.90
51867;DHT22;52862;52.504;13.480;2023-04-03T16:39:41;6.60;99.90
51867;DHT22;52862;52.504;13.480;2023-04-03T16:42:08;5.90;99.90
51867;DHT22;52862;52.504;13.480;2023-04-03T16:44:35;5.80;99.90
51867;DHT22;52862;52.504;13.480;2023-04-03T16:47:03;5.50;99.90
51867;DHT22;52862;52.504;13.480;2023-04-03T16:49:30;5.50;99.90
51867;DHT22;52862;52.504;13.480;2023-04-03T16:51:59;5.10;99.90
51867;DHT22;52862;52.504;13.480;2023-04-03T16:54:26;5.30;99.90
51867;DHT22;52862;52.504;13.480;2023-04-03T16:56:53;5.40;99.90
51867;DHT22;52862;52.504;13.480;2023-04-03T16:59:20;5.40;99.90
51867;DHT22;52862;52.504;13.480;2023-04-03T17:01:46;5.20;99.90
51867;DHT22;52862;52.504;13.480;2023-04-03T17:04:15;5.10;99.90
51867;DHT22;52862;52.504;13.480;2023-04-03T17:06:42;5.80;99.90
51867;DHT22;52862;52.504;13.480;2023-04-03T17:09:09;5.20;99.90
51867;DHT22;52862;52.504;13.480;2023-04-03T17:14:04;5.20;99.90
51867;DHT22;52862;52.504;13.480;2023-04-03T17:16:32;5.20;99.90
51867;DHT22;52862;52.504;13.480;2023-04-03T17:19:00;5.30;99.90
51867;DHT22;52862;52.504;13.480;2023-04-03T17:21:31;5.00;99.90
51867;DHT22;52862;52.504;13.480;2023-04-03T17:24:00;5.20;99.90
51867;DHT22;52862;52.504;13.480;2023-04-03T17:26:28;5.00;99.90
51867;DHT22;52862;52.504;13.480;2023-04-03T17:31:23;5.10;99.90
51867;DHT22;52862;52.504;13.480;2023-04-03T17:33:49;5.00;99.90
51867;DHT22;52862;52.504;13.480;2023-04-03T17:36:16;5.20;99.90
51867;DHT22;52862;52.504;13.480;2023-04-03T17:38:44;5.00;99.90
51867;DHT22;52862;52.504;13.480;2023-04-03T17:41:10;6.70;99.90
51867;DHT22;52862;52.504;13.480;2023-04-03T17:43:37;4.90;99.90
51867;DHT22;52862;52.504;13.480;2023-04-03T17:46:05;4.90;99.90
51867;DHT22;52862;52.504;13.480;2023-04-03T17:48:38;5.30;99.90
51867;DHT22;52862;52.504;13.480;2023-04-03T17:53:32;5.10;99.90
51867;DHT22;52862;52.504;13.480;2023-04-03T17:56:04;4.80;99.90
51867;DHT22;52862;52.504;13.480;2023-04-03T18:00:58;5.00;99.90
51867;DHT22;52862;52.504;13.480;2023-04-03T18:03:25;4.90;99.90
51867;DHT22;52862;52.504;13.480;2023-04-03T18:05:52;4.80;99.90
51867;DHT22;52862;52.504;13.480;2023-04-03T18:08:21;5.10;99.90
51867;DHT22;52862;52.504;13.480;2023-04-03T18:13:16;4.90;99.90
51867;DHT22;52862;52.504;13.480;2023-04-03T18:15:43;4.90;99.90
51867;DHT22;52862;52.504;13.480;2023-04-03T18:18:11;4.80;99.90
51867;DHT22;52862;52.504;13.480;2023-04-03T18:20:38;4.70;99.90
51867;DHT22;52862;52.504;13.480;2023-04-03T18:23:05;5.40;99.90
51867;DHT22;52862;52.504;13.480;2023-04-03T18:25:32;4.10;99.90
51867;DHT22;52862;52.504;13.480;2023-04-03T18:28:04;4.50;99.90
51867;DHT22;52862;52.504;13.480;2023-04-03T18:30:32;3.80;99.90
51867;DHT22;52862;52.504;13.480;2023-04-03T18:33:00;4.40;99.90
51867;DHT22;52862;52.504;13.480;2023-04-03T18:35:27;3.90;99.90
51867;DHT22;52862;52.504;13.480;2023-04-03T18:37:54;4.30;99.90
51867;DHT22;52862;52.504;13.480;2023-04-03T18:40:21;4.00;99.90
51867;DHT22;52862;52.504;13.480;2023-04-03T18:42:47;4.20;99.90
51867;DHT22;52862;52.504;13.480;2023-04-03T18:45:16;4.40;99.90
51867;DHT22;52862;52.504;13.480;2023-04-03T18:47:46;4.00;99.90
51867;DHT22;52862;52.504;13.480;2023-04-03T18:50:14;4.30;99.90
51867;DHT22;52862;52.504;13.480;2023-04-03T18:52:42;4.30;99.90
51867;DHT22;52862;52.504;13.480;2023-04-03T18:55:09;4.20;99.90
51867;DHT22;52862;52.504;13.480;2023-04-03T18:57:38;4.20;99.90
51867;DHT22;52862;52.504;13.480;2023-04-03T19:00:06;4.40;99.90
51867;DHT22;52862;52.504;13.480;2023-04-03T19:02:34;4.30;99.90
51867;DHT22;52862;52.504;13.480;2023-04-03T19:05:03;4.30;99.90
51867;DHT22;52862;52.504;13.480;2023-04-03T19:07:31;4.30;99.90
51867;DHT22;52862;52.504;13.480;2023-04-03T19:09:58;4.30;99.90
51867;DHT22;52862;52.504;13.480;2023-04-03T19:12:25;4.50;99.90
51867;DHT22;52862;52.504;13.480;2023-04-03T19:14:53;4.30;99.90
51867;DHT22;52862;52.504;13.480;2023-04-03T19:17:20;4.10;99.90
51867;DHT22;52862;52.504;13.480;2023-04-03T19:19:47;3.70;99.90
51867;DHT22;52862;52.504;13.480;2023-04-03T19:22:15;4.50;99.90
51867;DHT22;52862;52.504;13.480;2023-04-03T19:24:41;4.10;99.90